createdAt,value
2023-02-11T00:01:45.192Z,20.77
2023-02-11T00:04:11.925Z,19.77
2023-02-11T00:06:40.863Z,20.05
2023-02-11T00:09:10.701Z,19.38
2023-02-11T00:11:37.469Z,19.15
2023-02-11T00:14:07.832Z,19.45
2023-02-11T00:16:37.400Z,18.55
2023-02-11T00:19:06.229Z,19.48
2023-02-11T00:21:34.050Z,19.75
2023-02-11T00:24:02.181Z,20.00
2023-02-11T00:26:33.946Z,20.67
2023-02-11T00:29:01.516Z,19.95
2023-02-11T00:31:28.682Z,18.98
2023-02-11T00:33:58.280Z,19.40
2023-02-11T00:36:26.904Z,20.45
2023-02-11T00:38:56.350Z,19.85
2023-02-11T00:41:23.537Z,20.65
2023-02-11T00:43:55.992Z,20.80
2023-02-11T00:46:22.966Z,19.48
2023-02-11T00:48:51.769Z,19.52
2023-02-11T00:53:48.607Z,19.63
2023-02-11T00:56:15.406Z,19.40
2023-02-11T00:58:42.091Z,20.00
2023-02-11T01:01:14.004Z,19.20
2023-02-11T01:03:41.075Z,18.52
2023-02-11T01:06:11.398Z,19.10
2023-02-11T01:08:40.708Z,19.58
2023-02-11T01:11:13.279Z,18.33
2023-02-11T01:13:39.987Z,19.15
2023-02-11T01:16:08.378Z,19.30
2023-02-11T01:18:35.891Z,19.15
2023-02-11T01:21:05.669Z,17.85
2023-02-11T01:23:32.378Z,18.70
2023-02-11T01:25:59.204Z,19.17
2023-02-11T01:28:29.847Z,19.05
2023-02-11T01:30:57.144Z,17.95
2023-02-11T01:33:28.491Z,18.83
2023-02-11T01:35:55.264Z,18.35
2023-02-11T01:38:26.134Z,21.40
2023-02-11T01:40:55.845Z,20.80
2023-02-11T01:43:28.539Z,18.83
2023-02-11T01:46:04.316Z,18.80
2023-02-11T01:48:37.770Z,20.63
2023-02-11T01:51:18.546Z,19.60
2023-02-11T01:54:05.890Z,19.52
2023-02-11T01:56:53.422Z,19.83
2023-02-11T01:59:29.303Z,18.75
2023-02-11T02:02:02.392Z,18.48
2023-02-11T02:04:35.070Z,20.50
2023-02-11T02:07:19.764Z,19.40
2023-02-11T02:09:55.037Z,18.10
2023-02-11T02:12:21.698Z,19.48
2023-02-11T02:14:48.366Z,18.27
2023-02-11T02:17:35.075Z,19.17
2023-02-11T02:20:32.363Z,19.70
2023-02-11T02:23:09.814Z,18.33
2023-02-11T02:25:55.103Z,19.25
2023-02-11T02:28:30.746Z,20.10
2023-02-11T02:31:32.803Z,20.25
2023-02-11T02:34:24.774Z,21.00
2023-02-11T02:37:12.775Z,19.08
2023-02-11T02:39:39.797Z,20.90
2023-02-11T02:42:09.202Z,18.95
2023-02-11T02:44:35.912Z,19.15
2023-02-11T02:47:02.791Z,20.35
2023-02-11T02:49:29.500Z,19.63
2023-02-11T02:52:35.829Z,20.75
2023-02-11T02:55:21.062Z,18.75
2023-02-11T02:58:05.864Z,18.80
2023-02-11T03:00:42.255Z,18.10
2023-02-11T03:03:38.001Z,19.33
2023-02-11T03:06:26.354Z,18.77
2023-02-11T03:09:15.007Z,18.83
2023-02-11T03:11:44.048Z,18.98
2023-02-11T03:14:15.098Z,17.45
2023-02-11T03:16:43.714Z,19.23
2023-02-11T03:19:19.097Z,19.48
2023-02-11T03:21:49.216Z,17.50
2023-02-11T03:27:04.127Z,17.88
2023-02-11T03:29:30.730Z,19.50
2023-02-11T03:32:20.548Z,18.83
2023-02-11T03:34:54.694Z,18.58
2023-02-11T03:37:26.908Z,20.08
2023-02-11T03:40:03.461Z,18.88
2023-02-11T03:42:41.002Z,19.83
2023-02-11T03:45:15.423Z,18.17
2023-02-11T03:47:47.666Z,17.75
2023-02-11T03:50:16.537Z,19.25
2023-02-11T03:52:45.198Z,19.30
2023-02-11T03:55:17.073Z,18.83
2023-02-11T03:57:48.471Z,19.00
2023-02-11T04:00:15.799Z,19.95
2023-02-11T04:02:44.084Z,18.33
2023-02-11T04:05:14.936Z,19.45
2023-02-11T04:07:44.707Z,19.48
2023-02-11T04:10:12.608Z,19.25
2023-02-11T04:12:39.322Z,17.17
2023-02-11T04:15:06.594Z,20.50
2023-02-11T04:17:35.590Z,19.10
2023-02-11T04:20:05.041Z,19.73
2023-02-11T04:22:32.025Z,19.02
2023-02-11T04:25:01.154Z,17.95
2023-02-11T04:27:27.862Z,17.92
2023-02-11T04:29:56.719Z,19.55
2023-02-11T04:32:23.545Z,18.05
2023-02-11T04:34:50.419Z,18.70
2023-02-11T04:37:17.154Z,19.75
2023-02-11T04:39:46.266Z,18.40
2023-02-11T04:42:12.977Z,19.60
2023-02-11T04:44:39.703Z,18.98
2023-02-11T04:47:08.697Z,18.20
2023-02-11T04:49:37.518Z,18.13
2023-02-11T04:52:04.190Z,18.80
2023-02-11T04:54:30.995Z,17.60
2023-02-11T04:56:57.662Z,18.00
2023-02-11T04:59:24.501Z,19.05
2023-02-11T05:01:53.351Z,19.75
2023-02-11T05:04:20.070Z,18.60
2023-02-11T05:06:46.767Z,18.33
2023-02-11T05:09:16.725Z,18.63
2023-02-11T05:11:45.787Z,18.42
2023-02-11T05:14:12.491Z,19.05
2023-02-11T05:16:41.483Z,16.98
2023-02-11T05:19:08.307Z,19.33
2023-02-11T05:21:42.339Z,18.15
2023-02-11T05:24:12.238Z,18.38
2023-02-11T05:26:41.467Z,18.20
2023-02-11T05:29:08.124Z,16.27
2023-02-11T05:31:34.764Z,17.98
2023-02-11T05:34:03.854Z,18.67
2023-02-11T05:36:33.330Z,17.10
2023-02-11T05:39:02.401Z,18.38
2023-02-11T05:41:29.056Z,17.42
2023-02-11T05:44:00.399Z,17.85
2023-02-11T05:46:27.214Z,19.40
2023-02-11T05:48:53.930Z,17.48
2023-02-11T05:51:22.742Z,18.10
2023-02-11T05:53:49.405Z,18.63
2023-02-11T05:56:16.152Z,18.55
2023-02-11T05:58:42.846Z,18.73
2023-02-11T06:01:09.560Z,17.33
2023-02-11T06:03:36.248Z,17.45
2023-02-11T06:06:03.002Z,17.30
2023-02-11T06:08:29.705Z,16.77
2023-02-11T06:10:58.943Z,16.13
2023-02-11T06:13:25.698Z,16.63
2023-02-11T06:15:57.294Z,17.58
2023-02-11T06:18:29.483Z,16.77
2023-02-11T06:20:58.816Z,18.23
2023-02-11T06:23:30.252Z,17.50
2023-02-11T06:26:01.911Z,17.17
2023-02-11T06:28:31.222Z,18.63
2023-02-11T06:31:01.298Z,17.33
2023-02-11T06:33:28.043Z,17.02
2023-02-11T06:35:54.706Z,16.20
2023-02-11T06:38:23.785Z,17.77
2023-02-11T06:40:50.612Z,17.27
2023-02-11T06:43:17.508Z,16.60
2023-02-11T06:45:44.437Z,17.45
2023-02-11T06:48:11.205Z,16.40
2023-02-11T06:50:38.374Z,16.20
2023-02-11T06:53:05.015Z,16.05
2023-02-11T06:55:31.659Z,17.08
2023-02-11T06:57:58.351Z,16.67
2023-02-11T07:00:29.043Z,16.65
2023-02-11T07:02:55.939Z,16.58
2023-02-11T07:05:22.816Z,15.95
2023-02-11T07:07:49.556Z,15.45
2023-02-11T07:10:18.880Z,15.85
2023-02-11T07:12:45.626Z,16.20
2023-02-11T07:15:12.492Z,16.60
2023-02-11T07:17:39.181Z,17.00
2023-02-11T07:20:06.305Z,15.13
2023-02-11T07:22:34.814Z,16.90
2023-02-11T07:25:01.569Z,15.23
2023-02-11T07:27:28.286Z,15.63
2023-02-11T07:29:54.944Z,16.45
2023-02-11T07:32:21.855Z,17.67
2023-02-11T07:34:49.457Z,16.67
2023-02-11T07:37:16.182Z,14.40
2023-02-11T07:39:45.058Z,15.77
2023-02-11T07:42:13.982Z,16.60
2023-02-11T07:44:41.124Z,14.82
2023-02-11T07:47:07.888Z,14.98
2023-02-11T07:49:36.932Z,17.13
2023-02-11T07:52:03.653Z,17.45
2023-02-11T07:54:30.319Z,16.15
2023-02-11T07:56:57.181Z,15.00
2023-02-11T07:59:24.868Z,15.63
2023-02-11T08:01:51.959Z,15.48
2023-02-11T08:04:18.646Z,17.15
2023-02-11T08:06:45.488Z,16.02
2023-02-11T08:09:16.733Z,15.43
2023-02-11T08:11:44.246Z,16.50
2023-02-11T08:14:12.188Z,16.20
2023-02-11T08:16:39.703Z,16.83
2023-02-11T08:19:13.001Z,16.25
2023-02-11T08:21:40.615Z,17.15
2023-02-11T08:24:07.516Z,15.48
2023-02-11T08:26:34.933Z,16.30
2023-02-11T08:29:05.778Z,16.75
2023-02-11T08:31:39.419Z,17.65
2023-02-11T08:34:06.665Z,15.90
2023-02-11T08:36:38.522Z,16.30
2023-02-11T08:39:19.211Z,17.33
2023-02-11T08:41:53.313Z,15.95
2023-02-11T08:44:21.396Z,16.40
2023-02-11T08:46:48.610Z,17.33
2023-02-11T08:49:16.260Z,18.42
2023-02-11T08:51:43.538Z,17.55
2023-02-11T08:54:10.525Z,18.00
2023-02-11T08:56:38.576Z,18.75
2023-02-11T08:59:06.046Z,17.40
2023-02-11T09:01:33.216Z,16.98
2023-02-11T09:04:01.003Z,17.58
2023-02-11T09:06:32.334Z,17.45
2023-02-11T09:08:59.166Z,16.77
2023-02-11T09:11:32.385Z,18.40
2023-02-11T09:14:02.187Z,16.65
2023-02-11T09:16:31.705Z,17.25
2023-02-11T09:19:00.544Z,16.80
2023-02-11T09:21:30.202Z,17.40
2023-02-11T09:23:57.085Z,16.52
2023-02-11T09:26:29.037Z,18.48
2023-02-11T09:28:56.548Z,16.85
2023-02-11T09:31:25.604Z,17.58
2023-02-11T09:33:55.601Z,16.65
2023-02-11T09:36:25.264Z,17.30
2023-02-11T09:38:52.979Z,16.15
2023-02-11T09:41:31.474Z,17.52
2023-02-11T09:44:02.871Z,17.10
2023-02-11T09:46:41.196Z,16.65
2023-02-11T09:49:15.511Z,15.43
2023-02-11T09:51:57.977Z,15.57
2023-02-11T09:54:34.407Z,16.25
2023-02-11T09:57:01.294Z,17.90
2023-02-11T09:59:30.090Z,15.73
2023-02-11T10:01:59.509Z,16.20
2023-02-11T10:04:59.791Z,15.68
2023-02-11T10:07:43.671Z,15.02
2023-02-11T10:11:00.560Z,16.45
2023-02-11T10:13:29.989Z,16.00
2023-02-11T10:16:05.312Z,17.10
2023-02-11T10:18:44.451Z,15.25
2023-02-11T10:21:25.286Z,15.85
2023-02-11T10:24:00.080Z,14.48
2023-02-11T10:26:30.886Z,14.55
2023-02-11T10:29:04.667Z,14.27
2023-02-11T10:31:43.484Z,14.98
2023-02-11T10:34:11.993Z,13.98
2023-02-11T10:36:43.268Z,14.55
2023-02-11T10:39:21.608Z,14.15
2023-02-11T10:41:59.263Z,13.40
2023-02-11T10:44:29.735Z,13.52
2023-02-11T10:47:05.597Z,14.48
2023-02-11T10:49:38.924Z,13.38
2023-02-11T10:52:17.936Z,14.23
2023-02-11T10:55:00.021Z,15.05
2023-02-11T10:57:32.279Z,13.45
2023-02-11T11:00:05.465Z,12.65
2023-02-11T11:02:35.867Z,13.48
2023-02-11T11:05:18.263Z,12.88
2023-02-11T11:07:57.113Z,13.02
2023-02-11T11:11:10.505Z,13.55
2023-02-11T11:13:40.087Z,13.50
2023-02-11T11:16:09.990Z,13.52
2023-02-11T11:18:36.776Z,12.40
2023-02-11T11:21:07.568Z,14.32
2023-02-11T11:23:37.060Z,13.40
2023-02-11T11:26:13.160Z,13.57
2023-02-11T11:29:02.056Z,13.45
2023-02-11T11:31:35.618Z,12.60
2023-02-11T11:34:19.175Z,11.88
2023-02-11T11:36:46.086Z,13.13
2023-02-11T11:39:24.164Z,12.65
2023-02-11T11:42:40.367Z,11.73
2023-02-11T11:45:15.648Z,12.77
2023-02-11T11:48:04.517Z,12.13
2023-02-11T11:50:37.228Z,12.20
2023-02-11T11:53:37.304Z,13.02
2023-02-11T11:58:37.363Z,14.23
2023-02-11T12:01:25.885Z,13.43
2023-02-11T12:04:30.105Z,13.07
2023-02-11T12:07:12.538Z,12.32
2023-02-11T12:10:02.695Z,13.07
2023-02-11T12:15:23.864Z,12.00
2023-02-11T12:18:18.142Z,12.43
2023-02-11T12:21:06.748Z,13.60
2023-02-11T12:23:36.176Z,12.75
2023-02-11T12:26:17.898Z,13.77
2023-02-11T12:29:05.805Z,12.68
2023-02-11T12:31:46.850Z,12.93
2023-02-11T12:34:39.340Z,14.63
2023-02-11T12:37:33.349Z,14.63
2023-02-11T12:40:18.601Z,14.02
2023-02-11T12:43:18.694Z,14.98
2023-02-11T12:48:41.055Z,13.37
2023-02-11T12:51:32.600Z,12.93
2023-02-11T12:54:06.836Z,13.52
2023-02-11T12:56:52.177Z,12.88
2023-02-11T13:00:08.213Z,13.20
2023-02-11T13:02:54.514Z,13.25
2023-02-11T13:05:37.480Z,12.48
2023-02-11T13:08:19.064Z,12.88
2023-02-11T13:10:57.736Z,11.68
2023-02-11T13:13:33.013Z,13.25
2023-02-11T13:16:07.312Z,12.70
2023-02-11T13:18:37.528Z,11.93
2023-02-11T13:21:18.700Z,12.93
2023-02-11T13:24:05.398Z,13.05
2023-02-11T13:26:52.550Z,12.43
2023-02-11T13:29:44.241Z,13.70
2023-02-11T13:32:13.413Z,12.60
2023-02-11T13:34:43.180Z,12.13
2023-02-11T13:37:18.758Z,13.05
2023-02-11T13:40:04.607Z,11.93
2023-02-11T13:42:33.972Z,11.23
2023-02-11T13:45:01.414Z,13.68
2023-02-11T13:47:36.440Z,12.55
2023-02-11T13:50:07.528Z,12.32
2023-02-11T13:52:37.595Z,11.63
2023-02-11T13:55:23.287Z,13.52
2023-02-11T13:58:35.875Z,12.10
2023-02-11T14:01:02.823Z,12.88
2023-02-11T14:03:56.159Z,12.52
2023-02-11T14:06:47.078Z,12.73
2023-02-11T14:09:17.262Z,12.63
2023-02-11T14:12:11.816Z,11.60
2023-02-11T14:15:15.834Z,11.77
2023-02-11T14:17:42.543Z,12.15
2023-02-11T14:20:34.503Z,11.60
2023-02-11T14:23:04.821Z,11.20
2023-02-11T14:25:32.084Z,12.88
2023-02-11T14:28:04.779Z,11.93
2023-02-11T14:30:45.536Z,12.02
2023-02-11T14:33:39.931Z,12.60
2023-02-11T14:36:18.582Z,11.90
2023-02-11T14:39:04.032Z,12.77
2023-02-11T14:41:38.435Z,12.68
2023-02-11T14:44:15.324Z,13.45
2023-02-11T14:46:47.218Z,14.05
2023-02-11T14:49:39.702Z,14.63
2023-02-11T14:52:27.555Z,14.00
2023-02-11T14:55:27.396Z,13.43
2023-02-11T14:58:12.532Z,12.27
2023-02-11T15:00:58.462Z,12.52
2023-02-11T15:03:26.986Z,12.45
2023-02-11T15:06:08.103Z,12.73
2023-02-11T15:08:38.291Z,11.85
2023-02-11T15:11:12.075Z,12.77
2023-02-11T15:13:39.064Z,12.82
2023-02-11T15:16:18.247Z,14.23
2023-02-11T15:18:52.729Z,14.05
2023-02-11T15:21:39.883Z,12.57
2023-02-11T15:24:26.637Z,13.77
2023-02-11T15:27:03.438Z,13.93
2023-02-11T15:29:50.493Z,13.52
2023-02-11T15:32:21.643Z,14.70
2023-02-11T15:34:51.008Z,13.30
2023-02-11T15:37:22.156Z,13.27
2023-02-11T15:39:49.515Z,13.27
2023-02-11T15:42:25.273Z,13.38
2023-02-11T15:45:15.211Z,11.38
2023-02-11T15:50:25.204Z,13.02
2023-02-11T15:52:53.569Z,12.80
2023-02-11T15:55:21.022Z,12.13
2023-02-11T15:58:14.210Z,12.63
2023-02-11T16:00:50.614Z,13.20
2023-02-11T16:03:22.293Z,12.02
2023-02-11T16:05:49.367Z,13.32
2023-02-11T16:08:26.938Z,13.23
2023-02-11T16:11:09.303Z,12.90
2023-02-11T16:13:48.538Z,12.63
2023-02-11T16:16:31.385Z,12.35
2023-02-11T16:19:05.207Z,14.35
2023-02-11T16:21:42.049Z,14.95
2023-02-11T16:24:19.202Z,16.42
2023-02-11T16:26:50.044Z,15.98
2023-02-11T16:29:23.133Z,14.68
2023-02-11T16:31:50.394Z,18.63
2023-02-11T16:34:22.072Z,15.75
2023-02-11T16:36:49.370Z,15.15
2023-02-11T16:39:18.009Z,16.25
2023-02-11T16:41:45.023Z,16.50
2023-02-11T16:44:11.778Z,15.43
2023-02-11T16:46:38.898Z,15.52
2023-02-11T16:49:25.850Z,15.05
2023-02-11T16:51:56.828Z,12.35
2023-02-11T16:54:24.049Z,13.68
2023-02-11T16:56:50.803Z,14.30
2023-02-11T16:59:19.905Z,14.70
2023-02-11T17:01:49.903Z,14.30
2023-02-11T17:06:49.482Z,13.88
2023-02-11T17:09:21.674Z,14.63
2023-02-11T17:11:49.313Z,13.25
2023-02-11T17:14:16.936Z,13.85
2023-02-11T17:16:47.953Z,14.00
2023-02-11T17:19:17.826Z,13.93
2023-02-11T17:21:46.531Z,13.43
2023-02-11T17:24:14.985Z,14.98
2023-02-11T17:26:42.913Z,14.65
2023-02-11T17:29:12.063Z,14.95
2023-02-11T17:31:40.156Z,15.20
2023-02-11T17:34:07.525Z,15.32
2023-02-11T17:36:37.092Z,15.32
2023-02-11T17:39:08.329Z,16.10
2023-02-11T17:41:39.856Z,15.45
2023-02-11T17:44:14.076Z,15.77
2023-02-11T17:46:43.522Z,15.02
2023-02-11T17:49:11.960Z,16.08
2023-02-11T17:51:39.918Z,16.27
2023-02-11T17:54:14.750Z,16.05
2023-02-11T17:56:42.059Z,16.88
2023-02-11T17:59:10.496Z,15.80
2023-02-11T18:01:38.955Z,14.93
2023-02-11T18:04:07.352Z,16.02
2023-02-11T18:06:34.292Z,16.48
2023-02-11T18:09:04.108Z,17.55
2023-02-11T18:11:33.455Z,15.90
2023-02-11T18:14:04.604Z,15.38
2023-02-11T18:16:34.285Z,16.25
2023-02-11T18:19:03.483Z,16.35
2023-02-11T18:21:30.326Z,15.43
2023-02-11T18:23:57.244Z,16.25
2023-02-11T18:26:29.859Z,16.88
2023-02-11T18:29:00.488Z,16.60
2023-02-11T18:31:28.319Z,15.80
2023-02-11T18:33:55.111Z,17.42
2023-02-11T18:36:22.435Z,16.67
2023-02-11T18:38:49.316Z,17.98
2023-02-11T18:41:15.970Z,17.15
2023-02-11T18:43:43.069Z,17.40
2023-02-11T18:46:12.782Z,18.20
2023-02-11T18:48:40.461Z,17.05
2023-02-11T18:51:18.302Z,17.60
2023-02-11T18:53:45.353Z,17.90
2023-02-11T18:56:18.992Z,16.45
2023-02-11T18:58:48.553Z,18.10
2023-02-11T19:01:27.336Z,18.88
2023-02-11T19:03:55.704Z,17.45
2023-02-11T19:06:25.414Z,16.90
2023-02-11T19:08:59.722Z,17.30
2023-02-11T19:11:46.535Z,16.58
2023-02-11T19:14:15.888Z,16.58
2023-02-11T19:16:46.315Z,18.45
2023-02-11T19:19:14.096Z,18.30
2023-02-11T19:21:43.728Z,16.75
2023-02-11T19:24:12.251Z,17.33
2023-02-11T19:26:39.261Z,18.50
2023-02-11T19:29:06.764Z,18.27
2023-02-11T19:31:34.297Z,17.42
2023-02-11T19:34:02.513Z,16.90
2023-02-11T19:36:29.449Z,16.83
2023-02-11T19:38:56.162Z,17.23
2023-02-11T19:41:23.392Z,16.85
2023-02-11T19:43:52.847Z,17.55
2023-02-11T19:46:22.867Z,17.75
2023-02-11T19:51:17.570Z,17.95
2023-02-11T19:53:45.292Z,17.98
2023-02-11T19:56:15.681Z,18.20
2023-02-11T19:58:43.290Z,18.98
2023-02-11T20:01:11.467Z,17.52
2023-02-11T20:03:42.087Z,19.58
2023-02-11T20:06:13.085Z,17.00
2023-02-11T20:08:42.705Z,18.70
2023-02-11T20:11:12.008Z,18.80
2023-02-11T20:13:39.399Z,18.25
2023-02-11T20:16:40.727Z,18.73
2023-02-11T20:19:18.158Z,18.75
2023-02-11T20:21:47.324Z,20.15
2023-02-11T20:24:15.145Z,20.30
2023-02-11T20:26:42.441Z,18.27
2023-02-11T20:29:09.487Z,18.90
2023-02-11T20:31:36.759Z,19.48
2023-02-11T20:34:03.977Z,19.05
2023-02-11T20:36:34.130Z,19.17
2023-02-11T20:41:32.587Z,19.55
2023-02-11T20:44:02.503Z,18.92
2023-02-11T20:46:32.858Z,19.17
2023-02-11T20:49:00.937Z,20.38
2023-02-11T20:51:31.449Z,19.45
2023-02-11T20:53:59.104Z,19.88
2023-02-11T20:56:28.992Z,20.45
2023-02-11T20:59:00.884Z,22.17
2023-02-11T21:01:34.334Z,20.85
2023-02-11T21:04:17.094Z,20.92
2023-02-11T21:06:47.320Z,19.25
2023-02-11T21:09:17.380Z,18.60
2023-02-11T21:14:13.861Z,18.85
2023-02-11T21:16:40.937Z,19.38
2023-02-11T21:19:10.593Z,18.75
2023-02-11T21:21:38.471Z,18.45
2023-02-11T21:24:07.295Z,20.58
2023-02-11T21:26:35.418Z,19.75
2023-02-11T21:29:03.621Z,19.52
2023-02-11T21:31:34.632Z,18.70
2023-02-11T21:34:04.025Z,18.55
2023-02-11T21:36:33.777Z,19.20
2023-02-11T21:39:04.025Z,19.42
2023-02-11T21:41:31.345Z,18.92
2023-02-11T21:43:58.353Z,21.08
2023-02-11T21:46:28.032Z,19.20
2023-02-11T21:48:54.718Z,19.45
2023-02-11T21:51:26.503Z,17.70
2023-02-11T21:54:01.209Z,19.00
2023-02-11T21:56:29.573Z,18.30
2023-02-11T21:58:57.986Z,20.35
2023-02-11T22:01:30.451Z,19.10
2023-02-11T22:03:58.245Z,20.20
2023-02-11T22:06:31.312Z,18.17
2023-02-11T22:09:04.096Z,18.85
2023-02-11T22:11:31.001Z,18.85
2023-02-11T22:13:59.051Z,19.70
2023-02-11T22:16:26.945Z,19.05
2023-02-11T22:18:58.299Z,19.02
2023-02-11T22:21:29.518Z,18.17
2023-02-11T22:23:56.492Z,18.95
2023-02-11T22:26:24.966Z,18.50
2023-02-11T22:28:52.433Z,19.08
2023-02-11T22:31:25.632Z,19.95
2023-02-11T22:33:54.947Z,18.23
2023-02-11T22:36:32.568Z,19.43
2023-02-11T22:39:05.605Z,18.10
2023-02-11T22:41:32.597Z,20.40
2023-02-11T22:44:01.569Z,19.63
2023-02-11T22:46:28.328Z,20.75
2023-02-11T22:48:57.469Z,20.23
2023-02-11T22:51:29.237Z,20.45
2023-02-11T22:54:01.690Z,19.27
2023-02-11T22:56:32.309Z,18.88
2023-02-11T22:59:04.245Z,18.40
2023-02-11T23:01:34.579Z,19.45
2023-02-11T23:04:05.460Z,19.75
2023-02-11T23:06:32.583Z,18.05
2023-02-11T23:09:05.017Z,19.52
2023-02-11T23:11:31.784Z,20.13
2023-02-11T23:13:58.865Z,19.70
2023-02-11T23:16:33.589Z,20.17
2023-02-11T23:19:05.093Z,19.42
2023-02-11T23:21:34.161Z,20.70
2023-02-11T23:24:04.653Z,19.05
2023-02-11T23:26:31.754Z,20.08
2023-02-11T23:28:59.324Z,21.30
2023-02-11T23:31:29.556Z,19.27
2023-02-11T23:33:57.493Z,20.27
2023-02-11T23:36:24.261Z,19.52
2023-02-11T23:38:51.631Z,18.83
2023-02-11T23:41:19.240Z,20.67
2023-02-11T23:43:50.566Z,19.38
2023-02-11T23:46:17.334Z,19.50
2023-02-11T23:48:46.239Z,19.00
2023-02-11T23:51:12.976Z,18.70
2023-02-11T23:53:40.598Z,19.02
2023-02-11T23:56:10.684Z,19.08
